Latest Weather Observations for Argyle

IDD60801

Issued at 6:35 pm CST Friday 31 October 2014 (issued every 30 minutes, with the page automatically refreshed every 10 minutes)

About weather observations | Map of weather stations | Latest weather observations for NT | Other Formats
Station Details ID: 002064 Name: ARGYLE AERODROME Lat: -16.64 Lon: 128.45 Height: 164.0 m
Data from the previous 72 hours. | See also: Recent months at Argyle
Date/Time
CST
Temp
°C
App
Temp
°C
Dew
Point
Rel
Hum
%
Delta-T
°C
Wind Press
QNH
hPa
Press
MSL
hPa
Rain
since 9 am
mm
Dir
 
Spd
km/h
Gust
km/h
Spd
kts
Gust
kts
31/06:30pm 38.7 34.7 11.7 20 16.4 N 24 32 13 17 1005.8 - 0.0
31/06:00pm 39.4 36.7 11.6 19 16.9 NNE 17 22 9 12 1005.3 - 0.0
31/05:30pm 40.3 36.7 9.9 16 18.1 NNE 19 30 10 16 1004.9 - 0.0
31/05:00pm 39.9 35.9 9.1 15 18.1 NE 20 32 11 17 1004.8 - 0.0
31/04:30pm 40.6 36.9 9.3 15 18.5 NNE 19 32 10 17 1004.9 1003.6 0.0
31/04:00pm 40.9 36.0 7.1 13 19.3 NNE 22 39 12 21 1005.1 - 0.0
31/03:30pm 41.5 36.6 7.1 12 19.7 N 22 41 12 22 1005.5 - 0.0
31/02:30pm 41.0 38.1 8.3 14 19.0 N 13 28 7 15 1006.1 - 0.0
31/02:00pm 41.8 39.7 9.6 14 19.2 W 11 22 6 12 1006.7 - 0.0
31/01:30pm 41.0 38.8 10.7 16 18.3 NW 13 24 7 13 1007.2 1005.9 0.0
31/01:00pm 41.3 38.3 10.7 16 18.5 N 17 26 9 14 1007.8 - 0.0
31/12:30pm 39.5 36.2 11.7 19 16.9 NW 20 26 11 14 1008.4 - 0.0
31/12:00pm 38.7 36.5 14.4 23 15.3 NNW 19 28 10 15 1008.9 - 0.0
31/11:30am 38.2 36.3 15.2 25 14.6 NNW 19 30 10 16 1009.4 - 0.0
31/11:00am 37.9 36.1 15.5 26 14.3 NNW 19 28 10 15 1009.8 - 0.0
31/10:30am 37.1 35.8 15.8 28 13.6 NNW 17 26 9 14 1010.2 1008.9 0.0
31/10:00am 36.1 34.7 16.5 31 12.6 N 19 24 10 13 1010.6 - 0.0
31/09:30am 34.7 34.3 18.0 37 10.9 N 17 24 9 13 1010.8 - 0.0
31/09:00am 33.9 34.3 18.9 41 9.9 N 15 24 8 13 1010.6 - 0.0
31/08:30am 32.8 33.8 19.5 45 8.8 N 13 17 7 9 1010.4 - 0.0
31/08:00am 31.5 40.2 31.4 99 0.1 N 13 20 7 11 1010.1 - 0.0
31/07:30am 30.2 37.5 30.2 100 0.0 N 15 20 8 11 1009.8 1008.5 0.0
31/07:00am 29.4 36.8 29.4 100 0.0 N 11 15 6 8 1009.5 - 0.0
31/06:30am 29.2 36.1 29.2 100 0.0 N 13 17 7 9 1009.0 - 0.0
31/06:00am 29.4 36.5 29.4 100 0.0 N 13 17 7 9 1008.8 - 0.0
31/05:30am 29.6 36.8 29.6 100 0.0 N 13 17 7 9 1008.4 - 0.0
31/05:00am 29.8 37.2 29.8 100 0.0 N 13 17 7 9 1008.2 - 0.0
31/04:30am 30.4 38.3 30.4 100 0.0 N 13 15 7 8 1007.8 1006.5 0.0
31/04:00am 30.5 38.4 30.5 100 0.0 N 13 17 7 9 1007.5 - 0.0
31/03:30am 30.7 38.8 30.7 100 0.0 N 13 15 7 8 1007.6 - 0.0
31/03:00am 31.3 37.8 28.7 86 1.9 N 13 15 7 8 1007.5 - 0.0
31/02:30am 31.7 31.5 15.8 38 10.0 N 11 17 6 9 1007.7 - 0.0
31/02:00am 31.9 31.7 14.8 35 10.6 NNW 9 13 5 7 1008.0 - 0.0
31/01:30am 32.3 31.2 14.2 33 11.1 N 13 15 7 8 1008.0 1006.7 0.0
31/01:00am 32.8 31.1 13.6 31 11.7 NNW 15 20 8 11 1008.0 - 0.0
31/12:30am 32.9 30.6 13.1 30 12.0 NNW 17 20 9 11 1008.4 - 0.0
31/12:00am 33.2 30.8 12.8 29 12.3 NNW 17 20 9 11 1008.8 - 0.0
 
Date/Time
CST
Temp
°C
App
Temp
°C
Dew
Point
Rel
Hum
%
Delta-T
°C
Wind Press
QNH
hPa
Press
MSL
hPa
Rain
since 9 am
mm
Dir
 
Spd
km/h
Gust
km/h
Spd
kts
Gust
kts
30/11:30pm 33.7 30.8 12.4 27 12.8 N 19 24 10 13 1008.7 - 0.0
30/11:00pm 33.9 31.5 12.5 27 12.9 N 17 24 9 13 1008.9 - 0.0
30/10:30pm 34.3 31.1 13.1 27 12.9 N 22 26 12 14 1008.8 1007.5 0.0
30/10:00pm 34.9 32.5 13.8 28 13.0 N 19 20 10 11 1008.5 - 0.0
30/09:30pm 35.5 33.5 13.8 27 13.4 N 17 22 9 12 1008.3 - 0.0
30/09:00pm 36.1 33.3 13.3 25 14.0 N 20 28 11 15 1008.0 - 0.0
30/08:30pm 36.5 33.9 13.3 25 14.3 NNW 19 24 10 13 1007.8 - 0.0
30/08:00pm 37.0 33.1 13.4 24 14.6 N 26 32 14 17 1007.4 - 0.0
30/07:30pm 37.2 36.7 12.5 22 15.1 ESE 7 9 4 5 1006.7 1005.4 0.0
30/07:00pm 38.5 37.6 11.3 19 16.4 E 7 11 4 6 1006.5 - 0.0
30/06:30pm 39.3 37.4 10.6 18 17.2 E 11 15 6 8 1006.4 - 0.0
30/06:00pm 39.7 36.6 10.2 17 17.6 NE 17 24 9 13 1006.3 - 0.0
30/05:30pm 40.0 37.0 9.3 16 18.1 NE 15 24 8 13 1006.1 - 0.0
30/05:00pm 40.4 37.1 9.5 15 18.3 NE 17 28 9 15 1006.2 - 0.0
30/04:30pm 40.8 36.5 9.4 15 18.6 NE 22 28 12 15 1006.3 1005.0 0.0
30/04:00pm 40.6 36.6 8.1 14 18.8 E 19 28 10 15 1006.4 - 0.0
30/03:30pm 40.8 36.0 7.2 13 19.2 NE 22 33 12 18 1006.6 - 0.0
30/03:00pm 40.8 36.3 6.8 13 19.4 NE 20 35 11 19 1007.0 - 0.0
30/02:30pm 41.1 36.6 7.1 13 19.5 E 20 28 11 15 1007.2 - 0.0
30/02:00pm 41.1 38.3 10.0 15 18.6 ENE 15 20 8 11 1007.5 - 0.0
30/01:30pm 40.6 38.3 11.6 18 17.7 NE 15 24 8 13 1008.0 1006.7 0.0
30/01:00pm 39.7 37.9 12.1 19 16.9 NE 13 26 7 14 1008.6 - 0.0
30/12:30pm 39.4 37.5 13.1 21 16.3 NE 15 26 8 14 1009.1 - 0.0
30/12:00pm 38.2 37.7 14.8 25 14.8 NNE 11 22 6 12 1009.5 - 0.0
30/11:30am 38.4 37.7 15.5 26 14.6 N 13 22 7 12 1010.1 - 0.0
30/11:00am 36.5 36.9 16.4 30 12.9 N 9 17 5 9 1010.5 - 0.0
30/10:30am 35.9 36.0 17.4 33 12.0 ENE 13 20 7 11 1011.0 1009.7 0.0
30/10:00am 35.1 35.4 17.8 36 11.3 NNE 13 20 7 11 1011.5 - 0.0
30/09:30am 34.2 33.8 17.1 36 11.0 NE 15 22 8 12 1011.6 - 0.0
30/09:00am 33.5 32.2 15.7 34 11.2 NE 17 26 9 14 1011.5 - 0.0
30/08:30am 33.0 32.1 15.9 35 10.8 NE 15 24 8 13 1011.2 - 0.0
30/08:00am 32.3 34.5 16.4 38 10.1 CALM 0 0 0 0 1010.8 - 0.0
30/07:30am 31.1 33.3 16.4 41 9.3 CALM 0 0 0 0 1010.6 1009.3 0.0
30/07:00am 29.9 31.1 16.8 45 8.3 S 6 7 3 4 1010.3 - 0.0
30/06:30am 29.2 29.9 16.1 45 8.2 S 7 9 4 5 1010.0 - 0.0
30/06:00am 28.6 28.9 15.1 43 8.3 SSE 7 9 4 5 1009.7 - 0.0
30/05:30am 28.4 29.1 15.6 45 7.9 S 6 7 3 4 1009.4 - 0.0
30/05:00am 29.5 30.1 15.7 43 8.6 S 7 11 4 6 1009.2 - 0.0
30/04:30am 29.7 30.5 15.9 43 8.6 WSW 6 7 3 4 1009.1 1007.8 0.0
30/04:00am 30.1 30.5 15.2 40 9.2 W 7 9 4 5 1009.0 - 0.0
30/03:30am 30.1 32.3 16.5 44 8.6 CALM 0 0 0 0 1009.0 - 0.0
30/03:00am 30.3 31.2 16.1 42 8.9 SW 6 7 3 4 1009.1 - 0.0
30/02:30am 30.5 30.9 14.7 38 9.7 W 6 7 3 4 1009.3 - 0.0
30/02:00am 30.9 29.8 14.2 36 10.2 N 13 15 7 8 1009.3 - 0.0
30/01:30am 31.3 29.8 14.3 35 10.4 NNW 15 17 8 9 1009.5 1008.2 0.0
30/01:00am 31.6 30.6 14.5 35 10.5 NNW 13 15 7 8 1009.8 - 0.0
30/12:30am 32.2 30.9 14.7 34 10.8 NNW 15 19 8 10 1010.1 - 0.0
30/12:00am 32.2 31.9 15.4 36 10.5 NNW 11 13 6 7 1010.5 - 0.0
 
Date/Time
CST
Temp
°C
App
Temp
°C
Dew
Point
Rel
Hum
%
Delta-T
°C
Wind Press
QNH
hPa
Press
MSL
hPa
Rain
since 9 am
mm
Dir
 
Spd
km/h
Gust
km/h
Spd
kts
Gust
kts
29/11:30pm 32.8 32.6 15.6 35 10.8 NNW 11 15 6 8 1010.7 - 0.0
29/11:00pm 33.5 32.8 15.5 34 11.3 NNW 13 15 7 8 1010.7 - 0.0
29/10:30pm 33.9 33.3 15.7 33 11.5 N 13 17 7 9 1010.7 1009.4 0.0
29/10:00pm 34.0 32.9 14.3 30 12.2 NNW 13 19 7 10 1010.4 - 0.0
29/09:30pm 34.4 32.0 10.2 22 14.1 N 13 22 7 12 1010.1 - 0.0
29/09:00pm 35.6 35.4 10.4 21 14.8 N 2 6 1 3 1009.8 - 0.0
29/08:30pm 36.0 35.7 12.7 24 14.2 N 6 7 3 4 1009.8 - 0.0
29/08:00pm 37.1 35.8 9.8 19 16.0 N 7 7 4 4 1009.6 - 0.0
29/07:30pm 37.2 35.3 9.1 18 16.3 NNE 9 9 5 5 1009.2 1007.9 0.0
29/07:00pm 37.8 35.8 8.5 17 16.9 NNE 9 11 5 6 1008.9 - 0.0
29/06:30pm 38.6 37.0 8.9 16 17.3 N 7 13 4 7 1008.8 - 0.0
29/06:00pm 39.1 35.4 8.1 15 17.9 N 17 20 9 11 1008.6 - 0.0
29/05:30pm 39.2 36.9 8.9 16 17.7 ENE 11 17 6 9 1008.6 - 0.0
29/05:00pm 39.8 37.9 8.9 15 18.1 NE 9 20 5 11 1008.4 - 0.0
29/04:30pm 39.5 35.7 9.2 16 17.8 NNE 19 37 10 20 1008.5 1007.2 0.0
29/04:00pm 39.6 36.4 10.0 17 17.6 NNE 17 46 9 25 1008.8 - 0.0
29/03:30pm 39.9 35.9 9.1 15 18.1 NE 20 28 11 15 1009.1 - 0.0
29/03:00pm 39.0 35.4 10.5 18 17.0 NNE 20 32 11 17 1009.4 - 0.0
29/02:30pm 40.0 36.4 10.7 17 17.6 NNE 20 32 11 17 1009.9 - 0.0
29/02:00pm 39.3 36.5 11.4 19 16.9 NNE 17 26 9 14 1010.3 - 0.0
29/01:30pm 39.5 36.5 10.6 17 17.3 ENE 17 35 9 19 1010.9 1009.6 0.0
29/01:00pm 38.7 34.3 9.0 16 17.3 NE 22 35 12 19 1011.5 - 0.0
29/12:30pm 39.3 35.3 9.0 16 17.7 NE 20 32 11 17 1011.9 - 0.0
29/12:00pm 39.0 35.9 12.1 20 16.4 ENE 20 30 11 16 1012.2 - 0.0
29/11:30am 38.1 37.2 12.6 21 15.6 NNE 9 19 5 10 1012.5 - 0.0
29/11:00am 37.2 36.1 13.1 23 14.8 N 11 19 6 10 1012.7 - 0.0
29/10:30am 36.0 34.9 13.1 25 14.0 NNE 11 19 6 10 1012.9 1011.6 0.0
29/10:00am 35.1 34.4 13.1 26 13.4 N 9 15 5 8 1013.2 - 0.0
29/09:30am 34.2 34.2 14.1 29 12.4 NE 7 11 4 6 1013.3 - 0.0
29/09:00am 32.8 32.4 13.1 30 11.9 N 7 11 4 6 1013.1 - 0.0
29/08:30am 32.2 32.1 13.4 32 11.4 NNE 6 9 3 5 1012.9 - 0.0
29/08:00am 30.8 30.4 13.1 34 10.6 E 7 9 4 5 1012.7 - 0.0
29/07:30am 28.7 28.0 11.4 34 10.0 WNW 6 7 3 4 1012.5 1011.2 0.0
29/07:00am 27.2 26.4 10.9 36 9.3 WNW 6 9 3 5 1012.4 - 0.0
29/06:30am 27.7 26.3 10.9 35 9.6 N 9 13 5 7 1012.0 - 0.0
29/06:00am 27.9 27.0 11.5 36 9.5 N 7 9 4 5 1011.7 - 0.0
29/05:30am 26.9 25.9 10.9 36 9.1 ENE 7 9 4 5 1011.2 - 0.0
29/05:00am 28.6 27.6 11.1 33 10.1 SE 7 9 4 5 1010.6 - 0.0
29/04:30am 28.5 28.3 10.4 32 10.3 S 2 6 1 3 1010.3 1009.0 0.0
29/04:00am 28.9 27.8 10.8 32 10.4 SSE 7 11 4 6 1010.4 - 0.0
29/03:30am 28.3 27.0 11.3 34 9.8 ESE 9 11 5 6 1010.2 - 0.0
29/03:00am 29.2 29.2 11.3 33 10.4 ESE 2 6 1 3 1009.9 - 0.0
29/02:30am 30.4 29.9 10.9 30 11.3 S 4 7 2 4 1009.9 - 0.0
29/02:00am 30.7 29.9 11.8 31 11.1 S 7 9 4 5 1009.8 - 0.0
29/01:30am 31.8 30.3 10.6 27 12.3 W 9 11 5 6 1009.9 1008.6 0.0
29/01:00am 32.2 30.9 9.9 25 12.8 W 7 9 4 5 1010.1 - 0.0
29/12:30am 31.3 29.9 10.8 28 11.9 W 9 11 5 6 1010.3 - 0.0
29/12:00am 32.2 31.1 10.5 26 12.6 WSW 7 7 4 4 1010.5 - 0.0
 
Date/Time
CST
Temp
°C
App
Temp
°C
Dew
Point
Rel
Hum
%
Delta-T
°C
Wind Press
QNH
hPa
Press
MSL
hPa
Rain
since 9 am
mm
Dir
 
Spd
km/h
Gust
km/h
Spd
kts
Gust
kts
28/11:30pm 33.3 32.1 9.7 23 13.6 WSW 6 7 3 4 1010.6 - 0.0
28/11:00pm 33.2 33.4 10.6 25 13.2 CALM 0 0 0 0 1010.8 - 0.0
28/10:30pm 33.5 33.8 10.8 25 13.3 CALM 0 0 0 0 1010.7 1009.4 0.0
28/10:00pm 33.3 32.5 11.8 27 12.8 NNE 7 9 4 5 1010.6 - 0.0
28/09:30pm 34.3 32.5 9.5 22 14.3 N 9 11 5 6 1010.4 - 0.0
28/09:00pm 35.2 33.4 9.4 20 14.9 NNE 9 11 5 6 1010.1 - 0.0
28/08:30pm 35.4 33.7 9.8 21 14.9 NNE 9 11 5 6 1009.8 - 0.0

Other Formats:

Comma delimited format used in spreadsheet applications
http://www.bom.gov.au/fwo/IDD60801/IDD60801.94217.axf

JavaScript Object Notation format (JSON) in row-major order
http://www.bom.gov.au/fwo/IDD60801/IDD60801.94217.json